Change the Weather History Date:

Sunday, April 21, 2013

  Actual Average (KDAY) Record (KDAY)
Temperature  
Mean Temperature 44 °F 54 °F  
Max Temperature 55 °F 64 °F 84 °F (1985)
Min Temperature 32 °F 43 °F 26 °F (1904)
Degree Days  
Heating Degree Days 22 12  
Month to date heating degree days 319  
Since 1 July heating degree days 5358  
Cooling Degree Days 0 1  
Month to date cooling degree days 1  
Year to date cooling degree days 1  
Moisture  
Dew Point 32 °F    
Average Humidity 63    
Maximum Humidity 89    
Minimum Humidity 39    
Precipitation  
Precipitation 0.00 in 0.15 in 2.11 in (1928)
Month to date precipitation 2.82  
Year to date precipitation 11.11  
Snow  
Snow 0.00 in 0.00 in 3.50 in (1901)
Month to date snowfall 0.6  
Since 1 July snowfall 23.3  
Snow Depth -    
Sea Level Pressure  
Sea Level Pressure 30.47 in    
Wind  
Wind Speed 5 mph (ENE)    
Max Wind Speed 14 mph    
Max Gust Speed 17 mph    
Visibility 10 miles    
Events      
T = Trace of Precipitation, MM = Missing Value Source: NWS Daily Summary

Daily Weather History Graph

Daily Weather History Graph

Search for Another Location

Airport or City:

Trip Planner

Search our weather history database for the weather conditions in past years. The results will help you decide how hot, cold, wet, or windy it might be!

Date:

Astronomy

Apr. 21, 2013 Rise Set
Actual Time 6:51 AM EDT 8:21 PM EDT
Civil Twilight 6:23 AM EDT 8:50 PM EDT
Nautical Twilight 5:49 AM EDT 9:24 PM EDT
Astronomical Twilight 5:13 AM EDT 10:00 PM EDT
Moon 4:07 PM EDT (4/21) 4:11 AM EDT (4/21)
Length of Visible Light 14h 26m
Length of Day
13h 30m
Waxing Gibbous, 79% of the Moon is Illuminated
Apr 21
Waxing Gibbous
Apr 25
Full
May 2
Last Quarter
May 9
New
May 18
First Quarter

Hourly Weather History & Observations

Time (EDT) Temp. Windchill Dew Point Humidity Pressure Visibility Wind Dir Wind Speed Gust Speed Precip Events Conditions
12:15 AM 35.1 °F - 31.1 °F 85% 30.43 in 10.0 mi Calm Calm - N/A   Clear
12:35 AM 35.1 °F 32.2 °F 32.0 °F 89% 30.43 in 10.0 mi North 3.5 mph - N/A   Clear
12:55 AM 35.1 °F 31.0 °F 32.0 °F 89% 30.44 in 10.0 mi NNE 4.6 mph - N/A   Clear
1:15 AM 35.1 °F 30.1 °F 30.0 °F 82% 30.45 in 10.0 mi NNE 5.8 mph - N/A   Clear
1:35 AM 35.1 °F 32.2 °F 29.7 °F 81% 30.45 in 10.0 mi NNE 3.5 mph - N/A   Clear
1:55 AM 35.1 °F 31.0 °F 29.3 °F 80% 30.45 in 10.0 mi NNE 4.6 mph - N/A   Clear
2:15 AM 35.1 °F 31.0 °F 30.0 °F 82% 30.46 in 10.0 mi NNE 4.6 mph - N/A   Clear
2:35 AM 35.1 °F 31.0 °F 29.3 °F 80% 30.46 in 10.0 mi NNE 4.6 mph - N/A   Clear
5:15 AM 32.5 °F 29.3 °F 29.3 °F 88% 30.48 in 10.0 mi NNE 3.5 mph - N/A   Clear
5:35 AM 32.5 °F 29.3 °F 29.3 °F 88% 30.49 in 10.0 mi North 3.5 mph - N/A   Clear
5:55 AM 32.5 °F 29.3 °F 29.7 °F 89% 30.49 in 10.0 mi NNE 3.5 mph - N/A   Clear
6:15 AM 32.5 °F 29.3 °F 29.1 °F 87% 30.50 in 10.0 mi NNE 3.5 mph - N/A   Clear
6:35 AM 32.5 °F 29.3 °F 29.1 °F 87% 30.51 in 10.0 mi North 3.5 mph - N/A   Clear
6:55 AM 32.5 °F 29.3 °F 29.3 °F 88% 30.52 in 10.0 mi North 3.5 mph - N/A   Clear
7:15 AM 32.5 °F - 29.3 °F 88% 30.53 in 10.0 mi Calm Calm - N/A   Clear
7:35 AM 32.5 °F - 29.7 °F 89% 30.53 in 10.0 mi Calm Calm - N/A   Clear
7:55 AM 32.5 °F - 28.4 °F 85% 30.54 in 10.0 mi Calm Calm - N/A   Clear
8:15 AM 35.1 °F 32.2 °F 29.8 °F 81% 30.55 in 10.0 mi ENE 3.5 mph - N/A   Clear
8:35 AM 37.0 °F 33.3 °F 30.4 °F 77% 30.55 in 10.0 mi NE 4.6 mph - N/A   Clear
8:55 AM 37.8 °F 32.5 °F 30.2 °F 74% 30.55 in 10.0 mi ENE 6.9 mph - N/A   Clear
9:15 AM 40.6 °F 36.0 °F 31.5 °F 70% 30.55 in 10.0 mi East 6.9 mph - N/A   Clear
9:35 AM 42.8 °F 36.6 °F 30.9 °F 63% 30.55 in 10.0 mi East 11.5 mph 16.1 mph N/A   Clear
9:55 AM 45.1 °F 39.9 °F 32.0 °F 60% 30.55 in 10.0 mi East 10.4 mph - N/A   Clear
10:15 AM 47.7 °F - 32.5 °F 56% 30.56 in 10.0 mi East 10.4 mph - N/A   Clear
10:35 AM 47.7 °F - 32.4 °F 55% 30.56 in 10.0 mi East 10.4 mph - N/A   Clear
10:55 AM 47.7 °F - 31.8 °F 54% 30.56 in 10.0 mi ESE 8.1 mph - N/A   Clear
11:15 AM 47.7 °F - 30.7 °F 52% 30.56 in 10.0 mi ESE 8.1 mph - N/A   Clear
11:35 AM 47.7 °F - 32.2 °F 55% 30.55 in 10.0 mi East 10.4 mph 16.1 mph N/A   Clear
11:55 AM 47.7 °F - 32.2 °F 55% 30.55 in 10.0 mi ESE 6.9 mph - N/A   Clear
12:15 PM 47.7 °F - 31.1 °F 53% 30.55 in 10.0 mi East 4.6 mph - N/A   Clear
12:35 PM 48.9 °F - 32.0 °F 52% 30.54 in 10.0 mi ENE 8.1 mph - N/A   Clear
12:55 PM 50.2 °F - 32.9 °F 52% 30.53 in 10.0 mi ESE 4.6 mph - N/A   Clear
1:15 PM 50.9 °F - 33.1 °F 51% 30.52 in 10.0 mi East 8.1 mph - N/A   Clear
1:35 PM 51.1 °F - 33.3 °F 51% 30.50 in 10.0 mi East 11.5 mph - N/A   Clear
1:55 PM 52.7 °F - 33.1 °F 47% 30.50 in 10.0 mi NE 6.9 mph - N/A   Clear
2:15 PM 52.7 °F - 32.7 °F 47% 30.49 in 10.0 mi ENE 8.1 mph - N/A   Clear
2:35 PM 52.7 °F - 31.8 °F 45% 30.48 in 10.0 mi NE 6.9 mph - N/A   Clear
2:55 PM 52.7 °F - 32.4 °F 46% 30.47 in 10.0 mi East 11.5 mph - N/A   Clear
3:15 PM 52.7 °F - 31.3 °F 44% 30.46 in 10.0 mi ENE 5.8 mph 9.2 mph N/A   Clear
3:35 PM 53.1 °F - 31.6 °F 44% 30.45 in 10.0 mi ESE 5.8 mph - N/A   Clear
3:55 PM 53.1 °F - 32.2 °F 45% 30.44 in 10.0 mi East 13.8 mph - N/A   Clear
4:15 PM 55.4 °F - 33.1 °F 43% 30.44 in 10.0 mi East 6.9 mph 17.3 mph N/A   Clear
4:35 PM 55.4 °F - 32.7 °F 42% 30.43 in 10.0 mi East 4.6 mph - N/A   Clear
4:55 PM 55.4 °F - 32.4 °F 42% 30.42 in 10.0 mi ENE 8.1 mph - N/A   Clear
5:15 PM 55.4 °F - 32.2 °F 41% 30.42 in 10.0 mi East 5.8 mph - N/A   Clear
5:35 PM 55.4 °F - 31.8 °F 41% 30.41 in 10.0 mi ENE 12.7 mph - N/A   Clear
5:55 PM 55.4 °F - 32.0 °F 41% 30.41 in 10.0 mi NE 9.2 mph - N/A   Clear
6:15 PM 55.4 °F - 31.3 °F 40% 30.41 in 10.0 mi East 5.8 mph - N/A   Clear
6:35 PM 55.4 °F - 30.7 °F 39% 30.41 in 10.0 mi East 9.2 mph 16.1 mph N/A   Clear
6:55 PM 54.7 °F - 31.1 °F 41% 30.41 in 10.0 mi East 11.5 mph - N/A   Clear
7:15 PM 53.8 °F - 30.7 °F 41% 30.41 in 10.0 mi East 9.2 mph - N/A   Clear
7:35 PM 52.7 °F - 28.2 °F 39% 30.41 in 10.0 mi East 8.1 mph - N/A   Clear
7:55 PM 52.7 °F - 31.8 °F 45% 30.41 in 10.0 mi ENE 8.1 mph - N/A   Clear
8:15 PM 48.2 °F - 31.5 °F 52% 30.41 in 10.0 mi ENE 6.9 mph - N/A   Clear
8:35 PM 47.7 °F - 31.8 °F 54% 30.41 in 10.0 mi ENE 6.9 mph - N/A   Clear
8:55 PM 47.7 °F - 33.3 °F 57% 30.41 in 10.0 mi ENE 6.9 mph - N/A   Clear
9:15 PM 47.7 °F - 34.3 °F 60% 30.41 in 10.0 mi NE 5.8 mph - N/A   Clear
9:35 PM 46.9 °F - 36.0 °F 66% 30.42 in 10.0 mi NNE 4.6 mph - N/A   Clear
9:55 PM 43.0 °F 40.3 °F 35.2 °F 74% 30.42 in 10.0 mi NNE 4.6 mph - N/A   Clear
10:15 PM 42.8 °F 41.1 °F 33.8 °F 70% 30.42 in 10.0 mi NNE 3.5 mph - N/A   Clear
10:35 PM 41.7 °F 39.8 °F 33.4 °F 72% 30.42 in 10.0 mi NNE 3.5 mph - N/A   Clear
10:55 PM 42.1 °F 40.2 °F 35.1 °F 76% 30.42 in 10.0 mi North 3.5 mph - N/A   Clear
11:15 PM 41.5 °F 39.6 °F 33.6 °F 73% 30.41 in 10.0 mi NNE 3.5 mph - N/A   Clear
11:35 PM 39.7 °F 37.6 °F 35.2 °F 84% 30.41 in 10.0 mi NNE 3.5 mph - N/A   Clear
11:55 PM 40.1 °F 36.1 °F 33.1 °F 76% 30.40 in 10.0 mi NNE 5.8 mph - N/A   Clear